sensor_id;sensor_type;location;lat;lon;timestamp;P1;durP1;ratioP1;P2;durP2;ratioP2
38465;SDS011;24244;51.950;5.902;2023-04-19T00:01:50;5.63;;;2.83;;
38465;SDS011;24244;51.950;5.902;2023-04-19T00:04:18;4.70;;;2.92;;
38465;SDS011;24244;51.950;5.902;2023-04-19T00:06:46;5.35;;;3.10;;
38465;SDS011;24244;51.950;5.902;2023-04-19T00:09:13;7.35;;;2.88;;
38465;SDS011;24244;51.950;5.902;2023-04-19T00:11:41;6.07;;;3.30;;
38465;SDS011;24244;51.950;5.902;2023-04-19T00:14:07;6.20;;;3.58;;
38465;SDS011;24244;51.950;5.902;2023-04-19T00:16:35;4.70;;;2.97;;
38465;SDS011;24244;51.950;5.902;2023-04-19T00:19:02;6.00;;;2.95;;
38465;SDS011;24244;51.950;5.902;2023-04-19T00:21:31;5.22;;;3.00;;
38465;SDS011;24244;51.950;5.902;2023-04-19T00:23:58;5.90;;;3.30;;
38465;SDS011;24244;51.950;5.902;2023-04-19T00:26:27;6.15;;;3.63;;
38465;SDS011;24244;51.950;5.902;2023-04-19T00:28:54;6.05;;;3.05;;
38465;SDS011;24244;51.950;5.902;2023-04-19T00:31:21;6.90;;;3.10;;
38465;SDS011;24244;51.950;5.902;2023-04-19T00:33:47;5.00;;;3.03;;
38465;SDS011;24244;51.950;5.902;2023-04-19T00:36:14;5.50;;;3.50;;
38465;SDS011;24244;51.950;5.902;2023-04-19T00:38:43;4.85;;;2.83;;
38465;SDS011;24244;51.950;5.902;2023-04-19T00:41:09;5.75;;;3.50;;
38465;SDS011;24244;51.950;5.902;2023-04-19T00:43:36;5.55;;;3.40;;
38465;SDS011;24244;51.950;5.902;2023-04-19T00:46:03;6.03;;;3.65;;
38465;SDS011;24244;51.950;5.902;2023-04-19T00:48:31;5.18;;;2.95;;
38465;SDS011;24244;51.950;5.902;2023-04-19T00:51:01;5.88;;;3.00;;
38465;SDS011;24244;51.950;5.902;2023-04-19T00:53:33;7.07;;;3.88;;
38465;SDS011;24244;51.950;5.902;2023-04-19T00:56:02;4.97;;;2.92;;
38465;SDS011;24244;51.950;5.902;2023-04-19T00:58:30;5.50;;;3.50;;
38465;SDS011;24244;51.950;5.902;2023-04-19T01:00:58;5.10;;;3.30;;
38465;SDS011;24244;51.950;5.902;2023-04-19T01:03:25;6.60;;;3.70;;
38465;SDS011;24244;51.950;5.902;2023-04-19T01:05:54;4.97;;;2.92;;
38465;SDS011;24244;51.950;5.902;2023-04-19T01:08:21;4.68;;;3.13;;
38465;SDS011;24244;51.950;5.902;2023-04-19T01:10:48;7.53;;;3.70;;
38465;SDS011;24244;51.950;5.902;2023-04-19T01:13:16;5.53;;;3.00;;
38465;SDS011;24244;51.950;5.902;2023-04-19T01:15:43;5.05;;;3.40;;
38465;SDS011;24244;51.950;5.902;2023-04-19T01:18:10;6.18;;;3.42;;
38465;SDS011;24244;51.950;5.902;2023-04-19T01:20:38;3.85;;;2.47;;
38465;SDS011;24244;51.950;5.902;2023-04-19T01:23:07;6.03;;;3.40;;
38465;SDS011;24244;51.950;5.902;2023-04-19T01:25:37;6.22;;;3.40;;
38465;SDS011;24244;51.950;5.902;2023-04-19T01:28:04;5.90;;;3.53;;
38465;SDS011;24244;51.950;5.902;2023-04-19T01:30:31;6.28;;;3.60;;
38465;SDS011;24244;51.950;5.902;2023-04-19T01:32:59;6.43;;;3.83;;
38465;SDS011;24244;51.950;5.902;2023-04-19T01:35:26;5.47;;;2.97;;
38465;SDS011;24244;51.950;5.902;2023-04-19T01:37:53;5.57;;;2.88;;
38465;SDS011;24244;51.950;5.902;2023-04-19T01:40:23;5.70;;;3.63;;
38465;SDS011;24244;51.950;5.902;2023-04-19T01:42:51;7.05;;;3.55;;
38465;SDS011;24244;51.950;5.902;2023-04-19T01:45:18;6.78;;;3.63;;
38465;SDS011;24244;51.950;5.902;2023-04-19T01:47:45;6.82;;;3.42;;
38465;SDS011;24244;51.950;5.902;2023-04-19T01:50:12;5.05;;;3.10;;
38465;SDS011;24244;51.950;5.902;2023-04-19T01:52:38;5.40;;;3.05;;
38465;SDS011;24244;51.950;5.902;2023-04-19T01:55:05;5.15;;;3.10;;
38465;SDS011;24244;51.950;5.902;2023-04-19T01:57:34;6.07;;;3.05;;
38465;SDS011;24244;51.950;5.902;2023-04-19T02:00:01;5.22;;;3.30;;
38465;SDS011;24244;51.950;5.902;2023-04-19T02:02:27;6.05;;;3.60;;
38465;SDS011;24244;51.950;5.902;2023-04-19T02:04:55;7.88;;;3.40;;
38465;SDS011;24244;51.950;5.902;2023-04-19T02:07:23;5.55;;;3.55;;
38465;SDS011;24244;51.950;5.902;2023-04-19T02:09:50;6.28;;;3.42;;
38465;SDS011;24244;51.950;5.902;2023-04-19T02:12:16;5.15;;;3.13;;
38465;SDS011;24244;51.950;5.902;2023-04-19T02:14:44;6.45;;;3.30;;
38465;SDS011;24244;51.950;5.902;2023-04-19T02:17:11;4.43;;;2.78;;
38465;SDS011;24244;51.950;5.902;2023-04-19T02:19:38;5.40;;;3.30;;
38465;SDS011;24244;51.950;5.902;2023-04-19T02:22:05;6.68;;;3.10;;
38465;SDS011;24244;51.950;5.902;2023-04-19T02:24:32;5.85;;;3.50;;
38465;SDS011;24244;51.950;5.902;2023-04-19T02:26:59;7.20;;;3.50;;
38465;SDS011;24244;51.950;5.902;2023-04-19T02:29:27;4.78;;;2.65;;
38465;SDS011;24244;51.950;5.902;2023-04-19T02:31:55;6.07;;;3.67;;
38465;SDS011;24244;51.950;5.902;2023-04-19T02:34:22;5.32;;;3.42;;
38465;SDS011;24244;51.950;5.902;2023-04-19T02:36:49;5.57;;;3.00;;
38465;SDS011;24244;51.950;5.902;2023-04-19T02:39:17;7.07;;;4.00;;
38465;SDS011;24244;51.950;5.902;2023-04-19T02:41:44;4.82;;;2.95;;
38465;SDS011;24244;51.950;5.902;2023-04-19T02:44:11;6.15;;;2.83;;
38465;SDS011;24244;51.950;5.902;2023-04-19T02:46:38;5.30;;;3.13;;
38465;SDS011;24244;51.950;5.902;2023-04-19T02:49:06;4.75;;;2.72;;
38465;SDS011;24244;51.950;5.902;2023-04-19T02:51:33;6.70;;;3.15;;
38465;SDS011;24244;51.950;5.902;2023-04-19T02:53:59;5.03;;;2.83;;
38465;SDS011;24244;51.950;5.902;2023-04-19T02:56:26;5.05;;;2.83;;
38465;SDS011;24244;51.950;5.902;2023-04-19T02:58:53;4.70;;;2.72;;
38465;SDS011;24244;51.950;5.902;2023-04-19T03:01:20;6.00;;;3.25;;
38465;SDS011;24244;51.950;5.902;2023-04-19T03:03:47;4.60;;;2.08;;
38465;SDS011;24244;51.950;5.902;2023-04-19T03:06:16;6.22;;;3.05;;
38465;SDS011;24244;51.950;5.902;2023-04-19T03:08:42;4.65;;;2.35;;
38465;SDS011;24244;51.950;5.902;2023-04-19T03:11:09;4.85;;;3.30;;
38465;SDS011;24244;51.950;5.902;2023-04-19T03:13:37;5.03;;;2.92;;
38465;SDS011;24244;51.950;5.902;2023-04-19T03:16:06;4.57;;;2.90;;
38465;SDS011;24244;51.950;5.902;2023-04-19T03:18:33;4.38;;;2.45;;
38465;SDS011;24244;51.950;5.902;2023-04-19T03:21:03;7.22;;;3.05;;
38465;SDS011;24244;51.950;5.902;2023-04-19T03:23:32;4.13;;;2.08;;
38465;SDS011;24244;51.950;5.902;2023-04-19T03:25:59;4.15;;;2.47;;
38465;SDS011;24244;51.950;5.902;2023-04-19T03:28:26;4.72;;;2.67;;
38465;SDS011;24244;51.950;5.902;2023-04-19T03:30:53;5.10;;;3.05;;
38465;SDS011;24244;51.950;5.902;2023-04-19T03:33:20;5.82;;;2.63;;
38465;SDS011;24244;51.950;5.902;2023-04-19T03:35:47;5.50;;;2.72;;
38465;SDS011;24244;51.950;5.902;2023-04-19T03:38:14;5.13;;;2.83;;
38465;SDS011;24244;51.950;5.902;2023-04-19T03:40:42;4.65;;;2.55;;
38465;SDS011;24244;51.950;5.902;2023-04-19T03:43:09;4.75;;;2.92;;
38465;SDS011;24244;51.950;5.902;2023-04-19T03:45:36;4.82;;;2.40;;
38465;SDS011;24244;51.950;5.902;2023-04-19T03:48:02;5.57;;;2.70;;
38465;SDS011;24244;51.950;5.902;2023-04-19T03:50:29;4.72;;;2.75;;
38465;SDS011;24244;51.950;5.902;2023-04-19T03:53:01;5.60;;;2.75;;
38465;SDS011;24244;51.950;5.902;2023-04-19T03:55:30;5.35;;;3.13;;
38465;SDS011;24244;51.950;5.902;2023-04-19T03:57:58;6.85;;;2.60;;
38465;SDS011;24244;51.950;5.902;2023-04-19T04:00:26;5.50;;;2.50;;
38465;SDS011;24244;51.950;5.902;2023-04-19T04:02:55;5.95;;;3.10;;
38465;SDS011;24244;51.950;5.902;2023-04-19T04:05:22;5.78;;;2.63;;
38465;SDS011;24244;51.950;5.902;2023-04-19T04:07:53;5.78;;;3.05;;
38465;SDS011;24244;51.950;5.902;2023-04-19T04:10:24;6.07;;;2.80;;
38465;SDS011;24244;51.950;5.902;2023-04-19T04:12:51;4.47;;;2.33;;
38465;SDS011;24244;51.950;5.902;2023-04-19T04:15:20;6.57;;;3.33;;
38465;SDS011;24244;51.950;5.902;2023-04-19T04:17:47;5.63;;;2.60;;
38465;SDS011;24244;51.950;5.902;2023-04-19T04:20:13;4.65;;;2.17;;
38465;SDS011;24244;51.950;5.902;2023-04-19T04:22:42;5.85;;;3.20;;
38465;SDS011;24244;51.950;5.902;2023-04-19T04:25:11;4.95;;;2.83;;
38465;SDS011;24244;51.950;5.902;2023-04-19T04:27:38;6.22;;;2.90;;
38465;SDS011;24244;51.950;5.902;2023-04-19T04:30:05;5.97;;;2.53;;
38465;SDS011;24244;51.950;5.902;2023-04-19T04:32:36;5.47;;;2.75;;
38465;SDS011;24244;51.950;5.902;2023-04-19T04:35:04;4.65;;;2.53;;
38465;SDS011;24244;51.950;5.902;2023-04-19T04:37:32;4.90;;;2.92;;
38465;SDS011;24244;51.950;5.902;2023-04-19T04:40:02;4.95;;;2.50;;
38465;SDS011;24244;51.950;5.902;2023-04-19T04:42:34;4.55;;;2.53;;
38465;SDS011;24244;51.950;5.902;2023-04-19T04:45:03;5.00;;;2.75;;
38465;SDS011;24244;51.950;5.902;2023-04-19T04:47:31;4.80;;;2.42;;
38465;SDS011;24244;51.950;5.902;2023-04-19T04:50:00;5.35;;;2.75;;
38465;SDS011;24244;51.950;5.902;2023-04-19T04:52:28;6.88;;;2.30;;
38465;SDS011;24244;51.950;5.902;2023-04-19T04:54:58;4.80;;;2.50;;
38465;SDS011;24244;51.950;5.902;2023-04-19T04:57:25;7.13;;;2.90;;
38465;SDS011;24244;51.950;5.902;2023-04-19T04:59:52;5.00;;;2.50;;
38465;SDS011;24244;51.950;5.902;2023-04-19T05:02:24;5.15;;;2.60;;
38465;SDS011;24244;51.950;5.902;2023-04-19T05:04:51;4.47;;;2.45;;
38465;SDS011;24244;51.950;5.902;2023-04-19T05:07:19;4.40;;;2.88;;
38465;SDS011;24244;51.950;5.902;2023-04-19T05:09:46;4.47;;;2.35;;
38465;SDS011;24244;51.950;5.902;2023-04-19T05:12:14;4.72;;;2.72;;
38465;SDS011;24244;51.950;5.902;2023-04-19T05:14:41;4.85;;;2.30;;
38465;SDS011;24244;51.950;5.902;2023-04-19T05:17:08;4.47;;;2.50;;
38465;SDS011;24244;51.950;5.902;2023-04-19T05:19:34;3.90;;;2.22;;
38465;SDS011;24244;51.950;5.902;2023-04-19T05:22:01;5.45;;;2.60;;
38465;SDS011;24244;51.950;5.902;2023-04-19T05:24:29;4.05;;;2.10;;
38465;SDS011;24244;51.950;5.902;2023-04-19T05:26:56;5.53;;;2.47;;
38465;SDS011;24244;51.950;5.902;2023-04-19T05:29:23;4.40;;;2.50;;
38465;SDS011;24244;51.950;5.902;2023-04-19T05:31:49;4.43;;;2.28;;
38465;SDS011;24244;51.950;5.902;2023-04-19T05:34:17;5.00;;;2.03;;
38465;SDS011;24244;51.950;5.902;2023-04-19T05:36:47;5.28;;;2.47;;
38465;SDS011;24244;51.950;5.902;2023-04-19T05:39:14;4.90;;;2.50;;
38465;SDS011;24244;51.950;5.902;2023-04-19T05:41:44;3.78;;;2.22;;
38465;SDS011;24244;51.950;5.902;2023-04-19T05:44:11;4.10;;;2.42;;
38465;SDS011;24244;51.950;5.902;2023-04-19T05:46:38;4.65;;;2.15;;
38465;SDS011;24244;51.950;5.902;2023-04-19T05:49:06;3.95;;;2.90;;
38465;SDS011;24244;51.950;5.902;2023-04-19T05:51:33;3.45;;;2.22;;
38465;SDS011;24244;51.950;5.902;2023-04-19T05:54:00;4.38;;;2.10;;
38465;SDS011;24244;51.950;5.902;2023-04-19T05:56:27;3.95;;;2.22;;
38465;SDS011;24244;51.950;5.902;2023-04-19T05:58:55;3.42;;;2.05;;
38465;SDS011;24244;51.950;5.902;2023-04-19T06:01:22;2.80;;;2.08;;
38465;SDS011;24244;51.950;5.902;2023-04-19T06:03:49;3.80;;;2.33;;
38465;SDS011;24244;51.950;5.902;2023-04-19T06:06:20;4.72;;;2.17;;
38465;SDS011;24244;51.950;5.902;2023-04-19T06:08:47;4.07;;;2.15;;
38465;SDS011;24244;51.950;5.902;2023-04-19T06:11:14;4.18;;;1.95;;
38465;SDS011;24244;51.950;5.902;2023-04-19T06:13:58;4.82;;;2.05;;
38465;SDS011;24244;51.950;5.902;2023-04-19T06:16:25;3.00;;;1.77;;
38465;SDS011;24244;51.950;5.902;2023-04-19T06:18:52;3.85;;;2.00;;
38465;SDS011;24244;51.950;5.902;2023-04-19T06:21:19;4.65;;;2.35;;
38465;SDS011;24244;51.950;5.902;2023-04-19T06:23:47;3.15;;;1.98;;
38465;SDS011;24244;51.950;5.902;2023-04-19T06:26:15;3.60;;;1.75;;
38465;SDS011;24244;51.950;5.902;2023-04-19T06:28:42;3.83;;;2.08;;
38465;SDS011;24244;51.950;5.902;2023-04-19T06:31:10;4.35;;;2.33;;
38465;SDS011;24244;51.950;5.902;2023-04-19T06:33:37;3.97;;;2.00;;
38465;SDS011;24244;51.950;5.902;2023-04-19T06:36:07;3.22;;;1.95;;
38465;SDS011;24244;51.950;5.902;2023-04-19T06:38:36;4.53;;;2.30;;
38465;SDS011;24244;51.950;5.902;2023-04-19T06:41:03;4.60;;;2.15;;
38465;SDS011;24244;51.950;5.902;2023-04-19T06:43:30;4.22;;;2.25;;
38465;SDS011;24244;51.950;5.902;2023-04-19T06:45:57;6.40;;;2.10;;
38465;SDS011;24244;51.950;5.902;2023-04-19T06:48:27;3.58;;;1.83;;
38465;SDS011;24244;51.950;5.902;2023-04-19T06:50:54;3.30;;;1.92;;
38465;SDS011;24244;51.950;5.902;2023-04-19T06:53:21;3.83;;;1.70;;
38465;SDS011;24244;51.950;5.902;2023-04-19T06:55:48;2.63;;;1.60;;
38465;SDS011;24244;51.950;5.902;2023-04-19T06:58:22;4.50;;;2.20;;
38465;SDS011;24244;51.950;5.902;2023-04-19T07:00:49;4.47;;;1.88;;
38465;SDS011;24244;51.950;5.902;2023-04-19T07:03:17;4.40;;;1.88;;
38465;SDS011;24244;51.950;5.902;2023-04-19T07:05:46;3.20;;;1.95;;
38465;SDS011;24244;51.950;5.902;2023-04-19T07:08:13;3.60;;;1.70;;
38465;SDS011;24244;51.950;5.902;2023-04-19T07:10:40;4.05;;;1.45;;
38465;SDS011;24244;51.950;5.902;2023-04-19T07:13:09;4.05;;;1.88;;
38465;SDS011;24244;51.950;5.902;2023-04-19T07:15:37;3.63;;;1.65;;
38465;SDS011;24244;51.950;5.902;2023-04-19T07:18:07;3.28;;;1.38;;
38465;SDS011;24244;51.950;5.902;2023-04-19T07:20:36;2.75;;;1.55;;
38465;SDS011;24244;51.950;5.902;2023-04-19T07:23:06;3.78;;;2.00;;
38465;SDS011;24244;51.950;5.902;2023-04-19T07:25:33;4.13;;;1.60;;
38465;SDS011;24244;51.950;5.902;2023-04-19T07:27:59;5.22;;;1.85;;
38465;SDS011;24244;51.950;5.902;2023-04-19T07:30:26;3.28;;;1.25;;
38465;SDS011;24244;51.950;5.902;2023-04-19T07:32:53;3.70;;;1.30;;
38465;SDS011;24244;51.950;5.902;2023-04-19T07:35:21;2.22;;;0.93;;
38465;SDS011;24244;51.950;5.902;2023-04-19T07:37:48;2.80;;;1.35;;
38465;SDS011;24244;51.950;5.902;2023-04-19T07:40:16;2.70;;;1.33;;
38465;SDS011;24244;51.950;5.902;2023-04-19T07:42:45;2.80;;;1.35;;
38465;SDS011;24244;51.950;5.902;2023-04-19T07:45:12;2.92;;;1.20;;
38465;SDS011;24244;51.950;5.902;2023-04-19T07:47:44;2.70;;;1.50;;
38465;SDS011;24244;51.950;5.902;2023-04-19T07:50:13;3.25;;;1.55;;
38465;SDS011;24244;51.950;5.902;2023-04-19T07:52:40;2.58;;;1.45;;
38465;SDS011;24244;51.950;5.902;2023-04-19T07:55:08;2.13;;;1.13;;
38465;SDS011;24244;51.950;5.902;2023-04-19T07:57:37;2.83;;;1.30;;
38465;SDS011;24244;51.950;5.902;2023-04-19T08:00:04;3.78;;;1.42;;
38465;SDS011;24244;51.950;5.902;2023-04-19T08:02:33;3.72;;;1.23;;
38465;SDS011;24244;51.950;5.902;2023-04-19T08:05:01;3.05;;;1.60;;
38465;SDS011;24244;51.950;5.902;2023-04-19T08:07:33;4.32;;;1.60;;
38465;SDS011;24244;51.950;5.902;2023-04-19T08:10:02;2.90;;;1.30;;
38465;SDS011;24244;51.950;5.902;2023-04-19T08:12:30;2.70;;;1.23;;
38465;SDS011;24244;51.950;5.902;2023-04-19T08:15:16;2.50;;;1.38;;
38465;SDS011;24244;51.950;5.902;2023-04-19T08:18:03;1.55;;;0.65;;
38465;SDS011;24244;51.950;5.902;2023-04-19T08:20:31;2.55;;;1.20;;
38465;SDS011;24244;51.950;5.902;2023-04-19T08:23:00;3.75;;;1.23;;
38465;SDS011;24244;51.950;5.902;2023-04-19T08:25:39;3.13;;;1.25;;
38465;SDS011;24244;51.950;5.902;2023-04-19T08:28:06;2.33;;;1.10;;
38465;SDS011;24244;51.950;5.902;2023-04-19T08:30:36;2.05;;;1.02;;
38465;SDS011;24244;51.950;5.902;2023-04-19T08:35:34;1.85;;;0.90;;
38465;SDS011;24244;51.950;5.902;2023-04-19T08:38:03;2.08;;;0.80;;
38465;SDS011;24244;51.950;5.902;2023-04-19T08:40:30;1.60;;;0.80;;
38465;SDS011;24244;51.950;5.902;2023-04-19T08:42:57;1.75;;;0.57;;
38465;SDS011;24244;51.950;5.902;2023-04-19T08:45:28;1.83;;;0.90;;
38465;SDS011;24244;51.950;5.902;2023-04-19T08:48:01;2.30;;;0.50;;
38465;SDS011;24244;51.950;5.902;2023-04-19T08:50:32;1.55;;;0.52;;
38465;SDS011;24244;51.950;5.902;2023-04-19T08:56:00;2.95;;;0.80;;
38465;SDS011;24244;51.950;5.902;2023-04-19T08:58:31;1.75;;;0.50;;
38465;SDS011;24244;51.950;5.902;2023-04-19T09:01:20;1.27;;;0.40;;
38465;SDS011;24244;51.950;5.902;2023-04-19T09:07:00;1.63;;;0.60;;
38465;SDS011;24244;51.950;5.902;2023-04-19T09:09:48;1.50;;;0.70;;
38465;SDS011;24244;51.950;5.902;2023-04-19T09:12:31;0.93;;;0.52;;
38465;SDS011;24244;51.950;5.902;2023-04-19T09:14:59;2.42;;;0.63;;
38465;SDS011;24244;51.950;5.902;2023-04-19T09:17:39;2.00;;;0.68;;
38465;SDS011;24244;51.950;5.902;2023-04-19T09:20:12;1.42;;;0.60;;
38465;SDS011;24244;51.950;5.902;2023-04-19T09:22:40;2.20;;;0.55;;
38465;SDS011;24244;51.950;5.902;2023-04-19T09:25:28;1.15;;;0.50;;
38465;SDS011;24244;51.950;5.902;2023-04-19T09:28:15;1.10;;;0.60;;
38465;SDS011;24244;51.950;5.902;2023-04-19T09:30:49;2.08;;;0.52;;
38465;SDS011;24244;51.950;5.902;2023-04-19T09:33:33;1.42;;;0.60;;
38465;SDS011;24244;51.950;5.902;2023-04-19T09:36:24;2.90;;;0.77;;
38465;SDS011;24244;51.950;5.902;2023-04-19T09:38:54;1.83;;;0.68;;
38465;SDS011;24244;51.950;5.902;2023-04-19T09:41:25;1.65;;;0.68;;
38465;SDS011;24244;51.950;5.902;2023-04-19T09:44:08;1.40;;;0.63;;
38465;SDS011;24244;51.950;5.902;2023-04-19T09:49:24;2.20;;;0.70;;
38465;SDS011;24244;51.950;5.902;2023-04-19T09:52:05;2.30;;;0.82;;
38465;SDS011;24244;51.950;5.902;2023-04-19T09:54:34;1.65;;;0.70;;
38465;SDS011;24244;51.950;5.902;2023-04-19T09:57:01;1.33;;;0.40;;
38465;SDS011;24244;51.950;5.902;2023-04-19T09:59:29;1.33;;;0.60;;
38465;SDS011;24244;51.950;5.902;2023-04-19T10:01:57;1.20;;;0.60;;
38465;SDS011;24244;51.950;5.902;2023-04-19T10:04:28;2.88;;;0.85;;
38465;SDS011;24244;51.950;5.902;2023-04-19T10:07:21;1.85;;;0.50;;
38465;SDS011;24244;51.950;5.902;2023-04-19T10:10:05;1.42;;;0.50;;
38465;SDS011;24244;51.950;5.902;2023-04-19T10:12:47;1.30;;;0.50;;
38465;SDS011;24244;51.950;5.902;2023-04-19T10:15:23;2.28;;;0.65;;
38465;SDS011;24244;51.950;5.902;2023-04-19T10:18:05;1.80;;;0.55;;
38465;SDS011;24244;51.950;5.902;2023-04-19T10:20:38;1.80;;;0.60;;
38465;SDS011;24244;51.950;5.902;2023-04-19T10:25:45;1.83;;;0.50;;
38465;SDS011;24244;51.950;5.902;2023-04-19T10:28:14;2.22;;;0.70;;
38465;SDS011;24244;51.950;5.902;2023-04-19T10:30:52;0.80;;;0.50;;
38465;SDS011;24244;51.950;5.902;2023-04-19T10:33:33;1.33;;;0.60;;
38465;SDS011;24244;51.950;5.902;2023-04-19T10:36:07;3.40;;;0.73;;
38465;SDS011;24244;51.950;5.902;2023-04-19T10:38:43;1.90;;;0.70;;
38465;SDS011;24244;51.950;5.902;2023-04-19T10:41:13;1.55;;;0.60;;
38465;SDS011;24244;51.950;5.902;2023-04-19T10:43:44;2.33;;;0.60;;
38465;SDS011;24244;51.950;5.902;2023-04-19T10:46:14;1.83;;;0.80;;
38465;SDS011;24244;51.950;5.902;2023-04-19T10:48:49;1.52;;;0.68;;
38465;SDS011;24244;51.950;5.902;2023-04-19T10:51:25;1.48;;;0.60;;
38465;SDS011;24244;51.950;5.902;2023-04-19T10:53:59;1.42;;;0.60;;
38465;SDS011;24244;51.950;5.902;2023-04-19T10:59:37;1.60;;;0.68;;
38465;SDS011;24244;51.950;5.902;2023-04-19T11:02:26;2.75;;;0.65;;
38465;SDS011;24244;51.950;5.902;2023-04-19T11:05:01;1.10;;;0.50;;
38465;SDS011;24244;51.950;5.902;2023-04-19T11:07:38;1.50;;;0.50;;
38465;SDS011;24244;51.950;5.902;2023-04-19T11:10:11;1.73;;;0.80;;
38465;SDS011;24244;51.950;5.902;2023-04-19T11:12:41;1.50;;;0.73;;
38465;SDS011;24244;51.950;5.902;2023-04-19T11:15:09;1.60;;;0.60;;
38465;SDS011;24244;51.950;5.902;2023-04-19T11:17:40;1.98;;;0.88;;
38465;SDS011;24244;51.950;5.902;2023-04-19T11:20:11;2.40;;;0.80;;
38465;SDS011;24244;51.950;5.902;2023-04-19T11:22:41;1.50;;;0.68;;
38465;SDS011;24244;51.950;5.902;2023-04-19T11:25:11;1.60;;;0.50;;
38465;SDS011;24244;51.950;5.902;2023-04-19T11:27:40;2.10;;;0.70;;
38465;SDS011;24244;51.950;5.902;2023-04-19T11:30:09;2.05;;;0.80;;
38465;SDS011;24244;51.950;5.902;2023-04-19T11:32:43;2.25;;;0.75;;
38465;SDS011;24244;51.950;5.902;2023-04-19T11:35:12;2.97;;;0.75;;
38465;SDS011;24244;51.950;5.902;2023-04-19T11:37:41;2.45;;;0.70;;
38465;SDS011;24244;51.950;5.902;2023-04-19T11:40:12;1.92;;;0.60;;
38465;SDS011;24244;51.950;5.902;2023-04-19T11:42:42;1.83;;;0.80;;
38465;SDS011;24244;51.950;5.902;2023-04-19T11:47:56;3.28;;;0.80;;
38465;SDS011;24244;51.950;5.902;2023-04-19T11:50:34;2.65;;;0.85;;
38465;SDS011;24244;51.950;5.902;2023-04-19T11:53:10;2.00;;;0.70;;
38465;SDS011;24244;51.950;5.902;2023-04-19T11:55:47;1.98;;;0.98;;
38465;SDS011;24244;51.950;5.902;2023-04-19T11:58:45;1.75;;;0.90;;
38465;SDS011;24244;51.950;5.902;2023-04-19T12:01:18;2.00;;;0.70;;
38465;SDS011;24244;51.950;5.902;2023-04-19T12:03:46;2.67;;;1.05;;
38465;SDS011;24244;51.950;5.902;2023-04-19T12:06:15;2.88;;;0.70;;
38465;SDS011;24244;51.950;5.902;2023-04-19T12:08:46;2.28;;;0.70;;
38465;SDS011;24244;51.950;5.902;2023-04-19T12:11:17;1.77;;;0.68;;
38465;SDS011;24244;51.950;5.902;2023-04-19T12:13:47;1.65;;;0.90;;
38465;SDS011;24244;51.950;5.902;2023-04-19T12:16:15;2.95;;;0.75;;
38465;SDS011;24244;51.950;5.902;2023-04-19T12:18:55;2.15;;;0.68;;
38465;SDS011;24244;51.950;5.902;2023-04-19T12:21:23;2.33;;;1.00;;
38465;SDS011;24244;51.950;5.902;2023-04-19T12:23:55;1.92;;;0.82;;
38465;SDS011;24244;51.950;5.902;2023-04-19T12:26:25;1.48;;;0.50;;
38465;SDS011;24244;51.950;5.902;2023-04-19T12:28:55;2.40;;;1.05;;
38465;SDS011;24244;51.950;5.902;2023-04-19T12:31:22;2.03;;;0.90;;
38465;SDS011;24244;51.950;5.902;2023-04-19T12:33:49;1.92;;;0.85;;
38465;SDS011;24244;51.950;5.902;2023-04-19T12:36:17;2.00;;;0.90;;
38465;SDS011;24244;51.950;5.902;2023-04-19T12:38:45;1.63;;;0.70;;
38465;SDS011;24244;51.950;5.902;2023-04-19T12:41:11;2.13;;;0.88;;
38465;SDS011;24244;51.950;5.902;2023-04-19T12:43:40;2.17;;;1.10;;
38465;SDS011;24244;51.950;5.902;2023-04-19T12:46:06;1.98;;;0.80;;
38465;SDS011;24244;51.950;5.902;2023-04-19T12:48:33;1.80;;;0.70;;
38465;SDS011;24244;51.950;5.902;2023-04-19T12:51:00;1.83;;;0.90;;
38465;SDS011;24244;51.950;5.902;2023-04-19T12:53:29;2.30;;;1.00;;
38465;SDS011;24244;51.950;5.902;2023-04-19T12:56:02;2.67;;;1.42;;
38465;SDS011;24244;51.950;5.902;2023-04-19T12:58:29;4.55;;;1.33;;
38465;SDS011;24244;51.950;5.902;2023-04-19T13:01:00;2.65;;;1.15;;
38465;SDS011;24244;51.950;5.902;2023-04-19T13:03:27;3.15;;;1.25;;
38465;SDS011;24244;51.950;5.902;2023-04-19T13:05:58;2.00;;;0.80;;
38465;SDS011;24244;51.950;5.902;2023-04-19T13:08:25;2.80;;;1.38;;
38465;SDS011;24244;51.950;5.902;2023-04-19T13:11:11;1.67;;;1.33;;
38465;SDS011;24244;51.950;5.902;2023-04-19T13:13:49;2.03;;;0.77;;
38465;SDS011;24244;51.950;5.902;2023-04-19T13:16:18;2.95;;;1.13;;
38465;SDS011;24244;51.950;5.902;2023-04-19T13:18:46;2.25;;;1.02;;
38465;SDS011;24244;51.950;5.902;2023-04-19T13:21:13;2.60;;;1.30;;
38465;SDS011;24244;51.950;5.902;2023-04-19T13:23:44;2.78;;;1.20;;
38465;SDS011;24244;51.950;5.902;2023-04-19T13:26:18;1.63;;;0.90;;
38465;SDS011;24244;51.950;5.902;2023-04-19T13:28:46;2.40;;;0.90;;
38465;SDS011;24244;51.950;5.902;2023-04-19T13:31:13;2.45;;;1.00;;
38465;SDS011;24244;51.950;5.902;2023-04-19T13:33:41;2.92;;;1.10;;
38465;SDS011;24244;51.950;5.902;2023-04-19T13:36:09;1.80;;;0.85;;
38465;SDS011;24244;51.950;5.902;2023-04-19T13:38:37;2.58;;;1.10;;
38465;SDS011;24244;51.950;5.902;2023-04-19T13:41:04;2.40;;;1.05;;
38465;SDS011;24244;51.950;5.902;2023-04-19T13:43:31;2.00;;;1.13;;
38465;SDS011;24244;51.950;5.902;2023-04-19T13:45:57;2.63;;;0.80;;
38465;SDS011;24244;51.950;5.902;2023-04-19T13:48:25;2.22;;;1.00;;
38465;SDS011;24244;51.950;5.902;2023-04-19T13:51:01;2.83;;;0.80;;
38465;SDS011;24244;51.950;5.902;2023-04-19T13:53:28;1.67;;;0.65;;
38465;SDS011;24244;51.950;5.902;2023-04-19T13:55:55;2.22;;;0.90;;
38465;SDS011;24244;51.950;5.902;2023-04-19T13:58:23;2.38;;;1.02;;
38465;SDS011;24244;51.950;5.902;2023-04-19T14:00:50;2.25;;;0.80;;
38465;SDS011;24244;51.950;5.902;2023-04-19T14:03:16;2.58;;;1.08;;
38465;SDS011;24244;51.950;5.902;2023-04-19T14:05:47;2.88;;;0.88;;
38465;SDS011;24244;51.950;5.902;2023-04-19T14:08:15;4.00;;;1.20;;
38465;SDS011;24244;51.950;5.902;2023-04-19T14:10:42;2.47;;;1.23;;
38465;SDS011;24244;51.950;5.902;2023-04-19T14:13:09;2.53;;;0.80;;
38465;SDS011;24244;51.950;5.902;2023-04-19T14:15:46;2.10;;;0.90;;
38465;SDS011;24244;51.950;5.902;2023-04-19T14:18:19;3.00;;;1.02;;
38465;SDS011;24244;51.950;5.902;2023-04-19T14:20:49;2.42;;;1.00;;
38465;SDS011;24244;51.950;5.902;2023-04-19T14:23:19;1.92;;;0.90;;
38465;SDS011;24244;51.950;5.902;2023-04-19T14:26:03;2.35;;;1.00;;
38465;SDS011;24244;51.950;5.902;2023-04-19T14:28:32;3.10;;;1.30;;
38465;SDS011;24244;51.950;5.902;2023-04-19T14:31:00;2.58;;;1.10;;
38465;SDS011;24244;51.950;5.902;2023-04-19T14:33:27;1.60;;;0.80;;
38465;SDS011;24244;51.950;5.902;2023-04-19T14:36:18;1.88;;;0.82;;
38465;SDS011;24244;51.950;5.902;2023-04-19T14:38:51;2.53;;;1.05;;
38465;SDS011;24244;51.950;5.902;2023-04-19T14:41:37;2.30;;;0.88;;
38465;SDS011;24244;51.950;5.902;2023-04-19T14:44:04;2.92;;;1.20;;
38465;SDS011;24244;51.950;5.902;2023-04-19T14:46:33;2.20;;;1.10;;
38465;SDS011;24244;51.950;5.902;2023-04-19T14:49:01;1.88;;;1.00;;
38465;SDS011;24244;51.950;5.902;2023-04-19T14:51:32;2.78;;;1.15;;
38465;SDS011;24244;51.950;5.902;2023-04-19T14:54:00;2.30;;;1.00;;
38465;SDS011;24244;51.950;5.902;2023-04-19T14:56:26;2.20;;;1.00;;
38465;SDS011;24244;51.950;5.902;2023-04-19T14:58:59;4.72;;;1.10;;
38465;SDS011;24244;51.950;5.902;2023-04-19T15:01:26;2.45;;;0.80;;
38465;SDS011;24244;51.950;5.902;2023-04-19T15:03:53;2.80;;;1.02;;
38465;SDS011;24244;51.950;5.902;2023-04-19T15:06:20;2.47;;;1.00;;
38465;SDS011;24244;51.950;5.902;2023-04-19T15:08:47;2.97;;;1.13;;
38465;SDS011;24244;51.950;5.902;2023-04-19T15:11:15;2.28;;;1.17;;
38465;SDS011;24244;51.950;5.902;2023-04-19T15:13:42;2.05;;;0.80;;
38465;SDS011;24244;51.950;5.902;2023-04-19T15:16:09;2.90;;;1.20;;
38465;SDS011;24244;51.950;5.902;2023-04-19T15:18:39;2.40;;;0.82;;
38465;SDS011;24244;51.950;5.902;2023-04-19T15:21:06;2.58;;;1.08;;
38465;SDS011;24244;51.950;5.902;2023-04-19T15:23:33;2.75;;;1.00;;